Latest Coastal Weather Observations for Lockhart River

IDQ60701

Issued at 5:12 am EST Friday 27 March 2015 (issued every 10 minutes, with the page automatically refreshed every 10 minutes)

About coastal observations | Map of coastal stations | Coastal observations for QLD | Marine services | Other Formats
Station Details ID: 028008 Name: LOCKHART RIVER AIRPORT Lat: -12.79 Lon: 143.30 Height: 18.5 m
Data from the previous 72 hours. | See also: Recent months at Lockhart River
Date/Time
EST
Temp

°C
Wind Pressure Rain
since 9am
mm
Weather Cloud Vis
km
Sea
Height
m
Swell
Dir
 
Speed
knots
Gust
knots
hPa Trend Height
m
Period
s
Dir
27/05:00am 22.1 CALM 0 0 1013.8 - 0.0 - Partly cloudy - - - - -
27/04:30am 21.8 CALM 0 4 1013.6 - 0.0 - Partly cloudy - - - - -
27/04:00am 21.9 CALM 0 3 1013.5 - 0.0 - Partly cloudy - - - - -
27/03:30am 22.0 CALM 0 0 1013.4 - 0.0 - - - - - - -
27/03:00am 22.0 CALM 0 0 1013.5 - 0.0 - Partly cloudy - - - - -
27/02:30am 22.1 CALM 0 0 1014.0 - 0.0 - Partly cloudy - - - - -
27/02:00am 21.9 CALM 0 0 1014.1 - 0.0 - Partly cloudy - - - - -
27/01:30am 21.8 CALM 0 0 1014.4 - 0.0 - - - - - - -
27/01:00am 22.1 CALM 0 0 1014.7 - 0.0 - Partly cloudy - - - - -
27/12:30am 21.9 N 2 4 1015.0 - 0.0 - - - - - - -
27/12:00am 22.1 CALM 0 0 1015.1 - 0.0 - - - - - - -
 
Date/Time
EST
Temp

°C
Wind Pressure Rain
since 9am
mm
Weather Cloud Vis
km
Sea
Height
m
Swell
Dir
 
Speed
knots
Gust
knots
hPa Trend Height
m
Period
s
Dir
26/11:30pm 22.2 CALM 0 0 1015.4 - 0.0 - - - - - - -
26/11:00pm 22.4 CALM 0 0 1015.6 - 0.0 - - - - - - -
26/10:30pm 22.6 CALM 0 0 1015.5 - 0.0 - - - - - - -
26/10:00pm 23.0 CALM 0 0 1015.1 - 0.0 - - - - - - -
26/09:30pm 23.0 CALM 0 0 1015.0 - 0.0 - - - - - - -
26/09:00pm 23.3 CALM 0 0 1014.7 - 0.0 - - - - - - -
26/08:30pm 23.7 CALM 0 0 1014.5 - 0.0 - - - - - - -
26/08:00pm 24.5 CALM 0 1 1014.1 - 0.0 - - - - - - -
26/07:30pm 25.3 SE 4 4 1013.6 - 0.0 - - - - - - -
26/07:00pm 26.1 ESE 3 4 1013.4 - 0.0 - - - - - - -
26/06:30pm 27.1 ESE 6 9 1012.9 - 0.0 - - - - - - -
26/06:00pm 28.0 ESE 7 10 1012.5 - 0.0 - - - - - - -
26/05:30pm 28.6 ESE 8 12 1012.5 - 0.0 - - - - - - -
26/05:00pm 28.9 ESE 10 16 1012.4 - 0.0 - - - - - - -
26/04:30pm 29.3 E 9 15 1012.2 - 0.0 - - - - - - -
26/04:00pm 29.6 E 10 15 1012.2 - 0.0 - - - - - - -
26/03:30pm 29.8 ESE 12 16 1012.3 - 0.0 - - - - - - -
26/03:00pm 29.8 E 10 15 1012.3 - 0.0 Fine Partly cloudy 30 - - - -
26/02:30pm 30.1 E 9 13 1012.7 - 0.0 - Partly cloudy - - - - -
26/02:00pm 30.0 E 9 13 1013.1 - 0.0 - Partly cloudy - - - - -
26/01:30pm 29.9 E 10 17 1013.4 - 0.0 - Partly cloudy - - - - -
26/01:00pm 29.8 ESE 11 17 1013.9 - 0.0 - Partly cloudy - - - - -
26/12:30pm 30.3 E 11 17 1014.2 - 0.0 - Partly cloudy - - - - -
26/12:00pm 30.0 SE 10 16 1014.5 - 0.0 - Partly cloudy - - - - -
26/11:30am 29.6 SE 9 15 1015.1 - 0.0 - Partly cloudy - - - - -
26/11:00am 29.5 SE 9 12 1015.6 - 0.0 - Partly cloudy - - - - -
26/10:30am 29.2 SE 8 12 1015.7 - 0.0 - Partly cloudy - - - - -
26/10:00am 28.3 SSE 7 12 1015.8 - 0.0 - Partly cloudy - - - - -
26/09:30am 27.9 SSE 5 9 1015.8 - 0.0 - Partly cloudy - - - - -
26/09:00am 27.1 SE 2 5 1015.3 - 0.0 Fine Partly cloudy 25 - - - -
26/08:30am 25.2 CALM 0 0 1015.3 - 0.0 - Partly cloudy - - - - -
26/08:00am 24.2 CALM 0 0 1015.1 - 0.0 - Partly cloudy - - - - -
26/07:30am 22.9 CALM 0 0 1014.6 - 0.0 - - - - - - -
26/07:00am 21.9 CALM 0 0 1014.2 - 0.0 - - - - - - -
26/06:30am 21.8 CALM 0 0 1014.0 - 0.0 - - - - - - -
26/06:00am 21.8 CALM 0 0 1013.7 - 0.0 - Partly cloudy - - - - -
26/05:30am 22.0 CALM 0 0 1013.4 - 0.0 - - - - - - -
26/05:00am 22.2 CALM 0 0 1013.2 - 0.0 - Partly cloudy - - - - -
26/04:30am 22.1 CALM 0 0 1013.0 - 0.0 - Partly cloudy - - - - -
26/04:00am 22.0 CALM 0 0 1013.1 - 0.0 - - - - - - -
26/03:30am 22.4 CALM 0 0 1013.1 - 0.0 - - - - - - -
26/03:00am 22.5 CALM 0 0 1013.3 - 0.0 - - - - - - -
26/02:30am 22.6 CALM 0 0 1013.7 - 0.0 - Partly cloudy - - - - -
26/02:00am 22.8 CALM 0 0 1013.9 - 0.0 - - - - - - -
26/01:30am 22.8 CALM 0 0 1013.8 - 0.0 - - - - - - -
26/01:00am 23.1 CALM 0 0 1014.0 - 0.0 - - - - - - -
26/12:30am 23.2 CALM 0 0 1014.3 - 0.0 - - - - - - -
26/12:00am 23.5 CALM 0 0 1014.4 - 0.0 - - - - - - -
 
Date/Time
EST
Temp

°C
Wind Pressure Rain
since 9am
mm
Weather Cloud Vis
km
Sea
Height
m
Swell
Dir
 
Speed
knots
Gust
knots
hPa Trend Height
m
Period
s
Dir
25/11:30pm 23.6 CALM 0 0 1014.7 - 0.0 - - - - - - -
25/11:00pm 23.7 CALM 0 0 1014.9 - 0.0 - - - - - - -
25/10:30pm 23.7 CALM 0 0 1015.0 - 0.0 - - - - - - -
25/10:00pm 24.0 CALM 0 0 1014.8 - 0.0 - - - - - - -
25/09:30pm 24.2 CALM 0 0 1014.8 - 0.0 - - - - - - -
25/09:00pm 24.4 CALM 0 0 1014.4 - 0.0 - - - - - - -
25/08:30pm 25.0 CALM 0 0 1014.3 - 0.0 - - - - - - -
25/08:00pm 25.6 CALM 0 0 1013.9 - 0.0 - - - - - - -
25/07:30pm 26.1 E 3 4 1013.6 - 0.0 - - - - - - -
25/07:00pm 26.7 E 4 6 1013.5 - 0.0 - - - - - - -
25/06:30pm 27.3 E 5 7 1013.2 - 0.0 - - - - - - -
25/06:00pm 28.2 E 7 9 1012.6 - 0.0 Fine - - - - - -
25/05:30pm 28.7 E 8 10 1012.5 - 0.0 - - - - - - -
25/05:00pm 28.8 E 9 11 1012.2 - 0.0 - - - - - - -
25/04:30pm 29.0 E 9 14 1012.1 - 0.0 - - - - - - -
25/04:00pm 29.2 E 9 13 1012.1 - 0.0 - - - - - - -
25/03:30pm 29.2 E 9 14 1012.0 - 0.0 - - - - - - -
25/03:00pm 29.4 E 11 15 1012.0 - 0.0 Fine Partly cloudy 30 - - - -
25/02:30pm 29.5 E 9 13 1012.2 - 0.0 - - - - - - -
25/02:00pm 29.5 E 9 12 1012.5 - 0.0 - Partly cloudy - - - - -
25/01:30pm 29.4 E 10 14 1012.8 - 0.0 - Partly cloudy - - - - -
25/01:00pm 29.7 E 9 13 1013.0 - 0.0 - - - - - - -
25/12:30pm 29.6 E 8 12 1013.7 - 0.0 - - - - - - -
25/12:00pm 29.4 E 9 14 1013.9 - 0.0 - Partly cloudy - - - - -
25/11:30am 29.5 E 7 11 1014.3 - 0.0 - Partly cloudy - - - - -
25/11:00am 29.2 E 8 12 1014.9 - 0.0 - Partly cloudy - - - - -
25/10:30am 28.6 E 7 11 1015.2 - 0.0 - Partly cloudy - - - - -
25/10:00am 28.8 ESE 7 11 1015.3 - 0.0 - Partly cloudy - - - - -
25/09:30am 28.5 E 7 10 1015.5 - 0.0 - Partly cloudy - - - - -
25/09:00am 27.5 SE 5 8 1015.5 - 0.0 Fine Partly cloudy 30 - - - -
25/08:30am 26.9 SE 1 4 1015.3 - 0.0 - - - - - - -
25/08:00am 25.6 CALM 0 0 1015.0 - 0.0 - - - - - - -
25/07:30am 23.8 CALM 0 0 1014.6 - 0.0 - - - - - - -
25/07:00am 22.8 CALM 0 0 1014.2 - 0.0 - - - - - - -
25/06:30am 22.6 CALM 0 0 1013.9 - 0.0 - - - - - - -
25/06:00am 22.6 CALM 0 0 1013.6 - 0.0 Fine - - - - - -
25/05:30am 22.9 CALM 0 0 1013.4 - 0.0 - - - - - - -
25/05:00am 23.0 CALM 0 0 1013.1 - 0.0 - Partly cloudy - - - - -
25/04:30am 23.0 CALM 0 0 1012.8 - 0.0 - - - - - - -
25/04:00am 23.1 CALM 0 0 1012.6 - 0.0 - Partly cloudy - - - - -
25/03:30am 23.3 CALM 0 0 1012.7 - 0.0 - Partly cloudy - - - - -
25/03:00am 23.4 CALM 0 0 1012.7 - 0.0 - Partly cloudy - - - - -
25/02:30am 23.6 CALM 0 0 1012.9 - 0.0 - - - - - - -
25/02:00am 23.7 CALM 0 0 1013.2 - 0.0 - - - - - - -
25/01:30am 24.0 CALM 0 0 1013.5 - 0.0 - - - - - - -
25/01:00am 24.2 CALM 0 0 1013.7 - 0.0 - - - - - - -
25/12:32am 24.5 CALM 0 0 1014.1 - 0.0 - Partly cloudy - - - - -
25/12:30am 24.5 CALM 0 0 1014.1 - 0.0 - Partly cloudy - - - - -
25/12:00am 24.6 CALM 0 0 1014.4 - 0.0 - Partly cloudy - - - - -
 
Date/Time
EST
Temp

°C
Wind Pressure Rain
since 9am
mm
Weather Cloud Vis
km
Sea
Height
m
Swell
Dir
 
Speed
knots
Gust
knots
hPa Trend Height
m
Period
s
Dir
24/11:31pm 24.8 CALM 0 0 1014.9 - 0.0 - Partly cloudy - - - - -
24/11:30pm 24.8 CALM 0 0 1014.9 - 0.0 - Partly cloudy - - - - -
24/11:00pm 24.8 CALM 0 0 1014.8 - 0.0 - Partly cloudy - - - - -
24/10:58pm 24.8 CALM 0 0 1014.8 - 0.0 - Partly cloudy - - - - -
24/10:39pm 24.8 CALM 0 0 1014.7 - 0.0 - Partly cloudy - - - - -
24/10:30pm 24.8 CALM 0 0 1014.6 - 0.0 - Partly cloudy - - - - -
24/10:20pm 24.8 CALM 0 0 1014.5 - 0.0 - Partly cloudy - - - - -
24/10:00pm 24.9 CALM 0 0 1014.4 - 0.0 - Partly cloudy - - - - -
24/09:30pm 25.1 CALM 0 0 1014.3 - 0.0 - Partly cloudy - - - - -
24/09:21pm 25.0 CALM 0 0 1014.2 - 0.0 - Partly cloudy - - - - -
24/09:00pm 24.8 CALM 0 0 1013.9 - 0.0 - Partly cloudy - - - - -
24/08:30pm 25.3 CALM 0 0 1013.4 - 0.0 - Partly cloudy - - - - -
24/08:00pm 25.7 CALM 0 0 1013.2 - 0.0 - Partly cloudy - - - - -
24/07:30pm 26.7 CALM 0 3 1013.0 - 0.0 - Partly cloudy - - - - -
24/07:00pm 27.1 E 4 6 1012.7 - 0.0 - Cloudy - - - - -
24/06:30pm 27.2 E 3 6 1012.4 - 0.0 - Partly cloudy - - - - -
24/06:00pm 27.4 E 4 6 1012.2 - 0.0 - Cloudy - - - - -
24/05:30pm 27.7 E 6 9 1011.9 - 0.0 - Cloudy - - - - -
24/05:00pm 27.8 E 7 9 1011.8 - 0.0 - Cloudy - - - - -
24/04:30pm 28.0 ESE 7 10 1011.8 - 0.0 - Partly cloudy - - - - -
24/04:00pm 28.0 ESE 8 11 1011.6 - 0.0 - Partly cloudy - - - - -
24/03:30pm 28.6 E 8 13 1011.7 - 0.0 - Partly cloudy - - - - -
24/03:00pm 28.0 E 9 12 1011.7 - 0.0 Fine Mostly cloudy 20 - - - -
24/02:30pm 28.9 E 8 12 1012.0 - 0.0 - Partly cloudy - - - - -
24/02:00pm 28.7 E 8 13 1012.2 - 0.0 - Partly cloudy - - - - -
24/01:30pm 29.1 E 9 14 1012.7 - 0.0 - Partly cloudy - - - - -
24/01:00pm 29.1 E 10 16 1013.2 - 0.0 - Partly cloudy - - - - -
24/12:30pm 28.8 E 9 13 1013.3 - 0.0 - Partly cloudy - - - - -
24/12:00pm 28.7 E 11 14 1013.2 - 0.0 - Partly cloudy - - - - -
24/11:30am 29.0 E 10 15 1013.7 - 0.0 - Partly cloudy - - - - -
24/11:00am 28.5 E 10 16 1013.9 - 0.0 - Partly cloudy - - - - -
24/10:30am 28.7 E 10 16 1013.9 - 0.0 - Partly cloudy - - - - -
24/10:00am 28.5 E 10 15 1014.0 - 0.0 - Partly cloudy - - - - -
24/09:30am 28.0 E 10 15 1013.8 - 0.0 - Partly cloudy - - - - -
24/09:00am 27.6 ESE 12 17 1013.5 - 0.0 Fine Partly cloudy 20 - - - -
24/08:30am 27.1 ESE 10 14 1013.2 - 0.0 - Partly cloudy - - - - -
24/08:00am 24.6 CALM 0 0 1013.0 - 0.0 - Partly cloudy - - - - -
24/07:30am 23.7 CALM 0 0 1012.8 - 0.0 - Partly cloudy - - - - -
24/07:00am 23.4 CALM 0 0 1012.5 - 0.0 - Partly cloudy - - - - -
24/06:30am 23.2 CALM 0 0 1012.1 - 0.0 - Partly cloudy - - - - -
24/06:00am 23.2 CALM 0 0 1011.7 - 0.0 - Partly cloudy - - - - -
24/05:30am 23.3 CALM 0 0 1011.4 - 0.0 - Partly cloudy - - - - -

Other Formats:

Comma delimited format used in spreadsheet applications
http://www.bom.gov.au/fwo/IDQ60701/IDQ60701.94186.axf

JavaScript Object Notation format (JSON) in row-major order
http://www.bom.gov.au/fwo/IDQ60701/IDQ60701.94186.json